createdAt,value
2022-08-18T00:01:05.251Z,18.25
2022-08-18T00:03:53.181Z,18.14
2022-08-18T00:06:20.437Z,18.02
2022-08-18T00:08:47.006Z,17.83
2022-08-18T00:11:13.643Z,17.74
2022-08-18T00:13:40.065Z,17.71
2022-08-18T00:16:06.885Z,17.80
2022-08-18T00:18:33.368Z,17.81
2022-08-18T00:21:00.253Z,17.70
2022-08-18T00:23:28.765Z,17.77
2022-08-18T00:25:55.617Z,17.62
2022-08-18T00:28:23.902Z,17.40
2022-08-18T00:30:54.154Z,17.51
2022-08-18T00:33:21.325Z,17.52
2022-08-18T00:35:48.513Z,17.52
2022-08-18T00:38:23.266Z,17.34
2022-08-18T00:40:53.295Z,17.43
2022-08-18T00:43:24.920Z,17.53
2022-08-18T00:45:51.439Z,17.58
2022-08-18T00:48:18.718Z,17.58
2022-08-18T00:50:49.454Z,17.59
2022-08-18T00:53:29.433Z,17.68
2022-08-18T00:56:00.306Z,17.64
2022-08-18T00:58:39.156Z,17.67
2022-08-18T01:01:08.667Z,17.69
2022-08-18T01:03:39.780Z,17.82
2022-08-18T01:06:21.644Z,17.82
2022-08-18T01:08:48.197Z,17.82
2022-08-18T01:11:15.125Z,17.83
2022-08-18T01:13:43.065Z,17.81
2022-08-18T01:16:28.696Z,17.77
2022-08-18T01:19:13.810Z,17.77
2022-08-18T01:21:52.171Z,17.79
2022-08-18T01:24:47.437Z,17.78
2022-08-18T01:27:18.196Z,17.77
2022-08-18T01:29:49.325Z,17.63
2022-08-18T01:32:19.700Z,17.53
2022-08-18T01:34:51.827Z,17.54
2022-08-18T01:37:22.364Z,17.42
2022-08-18T01:41:24.227Z,17.45
2022-08-18T01:42:38.573Z,17.50
2022-08-18T01:45:07.973Z,17.57
2022-08-18T01:47:48.042Z,17.58
2022-08-18T01:50:15.849Z,17.60
2022-08-18T01:52:42.380Z,17.59
2022-08-18T01:55:09.624Z,17.50
2022-08-18T01:57:45.092Z,17.28
2022-08-18T02:00:17.558Z,17.29
2022-08-18T02:02:44.859Z,17.41
2022-08-18T02:05:24.849Z,17.44
2022-08-18T02:07:54.069Z,17.53
2022-08-18T02:10:21.054Z,17.59
2022-08-18T02:12:47.657Z,17.52
2022-08-18T02:15:14.305Z,17.59
2022-08-18T02:17:43.207Z,17.65
2022-08-18T02:20:12.986Z,17.57
2022-08-18T02:22:39.715Z,17.62
2022-08-18T02:25:07.058Z,17.66
2022-08-18T02:27:34.180Z,17.67
2022-08-18T02:30:02.254Z,17.74
2022-08-18T02:32:29.408Z,17.77
2022-08-18T02:34:56.167Z,17.80
2022-08-18T02:37:22.999Z,17.71
2022-08-18T02:39:49.542Z,17.59
2022-08-18T02:42:16.307Z,17.56
2022-08-18T02:44:42.836Z,17.53
2022-08-18T02:47:09.445Z,17.55
2022-08-18T02:49:36.865Z,17.59
2022-08-18T02:52:03.866Z,17.65
2022-08-18T02:54:30.325Z,17.63
2022-08-18T02:56:57.436Z,17.57
2022-08-18T02:59:27.475Z,17.53
2022-08-18T03:01:56.061Z,17.53
2022-08-18T03:04:29.674Z,17.55
2022-08-18T03:06:59.747Z,17.58
2022-08-18T03:09:26.461Z,17.56
2022-08-18T03:11:53.553Z,17.51
2022-08-18T03:14:20.801Z,17.24
2022-08-18T03:16:54.240Z,17.24
2022-08-18T03:19:31.851Z,17.27
2022-08-18T03:22:03.023Z,17.31
2022-08-18T03:24:32.223Z,17.28
2022-08-18T03:26:59.318Z,17.31
2022-08-18T03:29:31.337Z,17.39
2022-08-18T03:32:04.071Z,17.42
2022-08-18T03:34:31.588Z,17.48
2022-08-18T03:36:58.891Z,17.50
2022-08-18T03:39:27.630Z,17.55
2022-08-18T03:42:01.200Z,17.55
2022-08-18T03:44:36.971Z,17.59
2022-08-18T03:47:07.566Z,17.53
2022-08-18T03:49:34.216Z,17.43
2022-08-18T03:52:01.412Z,17.27
2022-08-18T03:54:32.069Z,17.15
2022-08-18T03:57:00.198Z,17.21
2022-08-18T03:59:27.213Z,17.31
2022-08-18T04:01:55.320Z,17.41
2022-08-18T04:04:25.693Z,17.49
2022-08-18T04:07:14.474Z,17.52
2022-08-18T04:09:41.887Z,17.49
2022-08-18T04:12:16.974Z,17.51
2022-08-18T04:14:48.771Z,17.55
2022-08-18T04:17:25.946Z,17.59
2022-08-18T04:19:54.084Z,17.55
2022-08-18T04:22:21.042Z,17.60
2022-08-18T04:24:50.279Z,17.48
2022-08-18T04:27:17.911Z,17.43
2022-08-18T04:29:44.415Z,17.57
2022-08-18T04:32:11.009Z,17.69
2022-08-18T04:34:37.534Z,17.54
2022-08-18T04:37:05.499Z,17.36
2022-08-18T04:39:32.089Z,17.28
2022-08-18T04:41:59.332Z,17.40
2022-08-18T04:44:27.167Z,17.58
2022-08-18T04:46:54.321Z,17.76
2022-08-18T04:49:25.521Z,17.65
2022-08-18T04:52:36.138Z,17.55
2022-08-18T04:55:00.929Z,17.59
2022-08-18T04:57:28.562Z,17.75
2022-08-18T04:59:55.111Z,17.67
2022-08-18T05:02:22.131Z,17.65
2022-08-18T05:04:48.911Z,17.75
2022-08-18T05:07:19.032Z,17.80
2022-08-18T05:09:46.503Z,17.81
2022-08-18T05:12:15.395Z,17.86
2022-08-18T05:14:46.955Z,17.93
2022-08-18T05:17:15.048Z,17.90
2022-08-18T05:19:44.371Z,17.98
2022-08-18T05:22:17.754Z,18.10
2022-08-18T05:24:47.490Z,18.06
2022-08-18T05:27:14.534Z,18.09
2022-08-18T05:29:45.917Z,18.17
2022-08-18T05:32:30.836Z,18.20
2022-08-18T05:35:31.815Z,18.34
2022-08-18T05:38:22.613Z,18.47
2022-08-18T05:41:13.750Z,18.51
2022-08-18T05:43:51.744Z,18.48
2022-08-18T05:46:21.887Z,18.46
2022-08-18T05:48:48.643Z,18.48
2022-08-18T05:51:33.734Z,18.56
2022-08-18T05:54:21.039Z,18.62
2022-08-18T05:56:51.741Z,18.66
2022-08-18T05:59:21.569Z,18.71
2022-08-18T06:01:55.754Z,18.79
2022-08-18T06:04:57.021Z,18.90
2022-08-18T06:07:47.032Z,18.96
2022-08-18T06:10:14.941Z,18.99
2022-08-18T06:12:49.372Z,19.04
2022-08-18T06:15:24.124Z,19.08
2022-08-18T06:18:12.050Z,19.13
2022-08-18T06:20:45.907Z,19.15
2022-08-18T06:23:39.354Z,19.30
2022-08-18T06:26:18.094Z,19.46
2022-08-18T06:28:49.425Z,19.55
2022-08-18T06:31:40.744Z,19.59
2022-08-18T06:34:20.588Z,19.64
2022-08-18T06:37:08.249Z,19.62
2022-08-18T06:39:46.804Z,19.71
2022-08-18T06:42:17.746Z,19.71
2022-08-18T06:44:59.127Z,19.78
2022-08-18T06:47:54.691Z,19.90
2022-08-18T06:50:26.142Z,19.99
2022-08-18T06:52:54.439Z,20.10
2022-08-18T06:55:40.527Z,20.23
2022-08-18T06:58:13.561Z,20.03
2022-08-18T07:00:56.002Z,20.04
2022-08-18T07:03:54.855Z,20.04
2022-08-18T07:06:21.439Z,20.10
2022-08-18T07:08:54.604Z,20.12
2022-08-18T07:11:33.330Z,20.21
2022-08-18T07:14:17.059Z,20.26
2022-08-18T07:16:58.215Z,20.35
2022-08-18T07:19:29.958Z,20.43
2022-08-18T07:22:17.288Z,20.57
2022-08-18T07:24:47.770Z,20.59
2022-08-18T07:27:20.055Z,20.66
2022-08-18T07:30:06.151Z,20.76
2022-08-18T07:32:39.645Z,20.87
2022-08-18T07:35:09.186Z,20.81
2022-08-18T07:37:50.372Z,20.82
2022-08-18T07:40:52.168Z,20.93
2022-08-18T07:43:28.786Z,20.82
2022-08-18T07:46:06.010Z,20.99
2022-08-18T07:48:38.783Z,21.20
2022-08-18T07:51:24.461Z,21.22
2022-08-18T07:53:58.084Z,21.25
2022-08-18T07:56:44.254Z,21.20
2022-08-18T07:59:29.192Z,20.77
2022-08-18T08:02:10.542Z,20.44
2022-08-18T08:04:41.850Z,20.39
2022-08-18T08:07:24.760Z,20.64
2022-08-18T08:10:06.850Z,20.93
2022-08-18T08:12:50.314Z,21.11
2022-08-18T08:15:34.034Z,21.15
2022-08-18T08:18:17.302Z,21.17
2022-08-18T08:20:51.543Z,21.24
2022-08-18T08:23:33.370Z,21.33
2022-08-18T08:26:31.269Z,21.36
2022-08-18T08:29:36.467Z,21.25
2022-08-18T08:32:12.246Z,21.09
2022-08-18T08:34:45.794Z,21.09
2022-08-18T08:37:30.817Z,21.36
2022-08-18T08:40:15.836Z,21.60
2022-08-18T08:42:52.993Z,21.73
2022-08-18T08:45:30.604Z,21.62
2022-08-18T08:48:26.942Z,21.75
2022-08-18T08:50:53.357Z,21.88
2022-08-18T08:53:31.735Z,21.54
2022-08-18T08:56:02.958Z,21.73
2022-08-18T08:58:37.595Z,21.85
2022-08-18T09:01:05.720Z,22.06
2022-08-18T09:03:56.213Z,22.19
2022-08-18T09:06:34.955Z,22.33
2022-08-18T09:09:13.568Z,22.38
2022-08-18T09:11:51.940Z,22.36
2022-08-18T09:14:49.404Z,22.42
2022-08-18T09:17:50.699Z,22.67
2022-08-18T09:20:54.764Z,22.94
2022-08-18T09:23:26.125Z,23.05
2022-08-18T09:26:00.349Z,23.19
2022-08-18T09:28:29.944Z,23.08
2022-08-18T09:31:08.715Z,22.90
2022-08-18T09:33:45.301Z,23.15
2022-08-18T09:36:30.258Z,23.19
2022-08-18T09:39:38.446Z,23.33
2022-08-18T09:42:14.273Z,23.57
2022-08-18T09:44:48.535Z,23.68
2022-08-18T09:50:24.584Z,23.79
2022-08-18T09:53:02.397Z,23.81
2022-08-18T09:55:31.970Z,23.57
2022-08-18T09:58:20.138Z,23.69
2022-08-18T10:01:19.909Z,23.88
2022-08-18T10:04:15.829Z,23.79
2022-08-18T10:06:51.080Z,23.89
2022-08-18T10:09:36.290Z,24.05
2022-08-18T10:12:31.990Z,24.00
2022-08-18T10:15:37.503Z,23.81
2022-08-18T10:18:22.577Z,23.98
2022-08-18T10:21:22.804Z,23.71
2022-08-18T10:24:29.889Z,23.85
2022-08-18T10:26:54.257Z,23.52
2022-08-18T10:29:27.687Z,23.16
2022-08-18T10:31:57.408Z,23.04
2022-08-18T10:37:44.325Z,23.80
2022-08-18T10:40:14.076Z,23.91
2022-08-18T10:42:45.529Z,23.73
2022-08-18T10:45:31.603Z,23.73
2022-08-18T10:48:24.435Z,23.95
2022-08-18T10:51:09.110Z,24.02
2022-08-18T10:53:45.724Z,23.99
2022-08-18T10:56:31.722Z,23.81
2022-08-18T10:59:17.275Z,23.56
2022-08-18T11:02:18.625Z,23.20
2022-08-18T11:04:58.809Z,23.27
2022-08-18T11:07:30.961Z,23.33
2022-08-18T11:10:29.527Z,23.43
2022-08-18T11:13:07.365Z,23.41
2022-08-18T11:16:02.938Z,23.48
2022-08-18T11:18:38.980Z,23.64
2022-08-18T11:21:37.636Z,23.64
2022-08-18T11:24:13.989Z,23.66
2022-08-18T11:26:53.067Z,23.72
2022-08-18T11:29:34.116Z,23.66
2022-08-18T11:32:19.664Z,23.74
2022-08-18T11:34:59.868Z,23.69
2022-08-18T11:37:51.848Z,23.67
2022-08-18T11:41:02.361Z,23.66
2022-08-18T11:43:21.202Z,23.61
2022-08-18T11:45:48.195Z,23.61
2022-08-18T11:48:14.657Z,23.56
2022-08-18T11:50:54.561Z,23.66
2022-08-18T11:53:36.673Z,23.93
2022-08-18T11:56:14.459Z,24.41
2022-08-18T11:58:45.887Z,24.84
2022-08-18T12:01:41.531Z,25.56
2022-08-18T12:04:14.521Z,26.12
2022-08-18T12:06:59.906Z,26.32
2022-08-18T12:12:31.083Z,26.58
2022-08-18T12:15:25.522Z,26.68
2022-08-18T12:17:56.287Z,26.73
2022-08-18T12:20:22.968Z,27.09
2022-08-18T12:22:50.285Z,27.25
2022-08-18T12:25:24.825Z,27.72
2022-08-18T12:27:52.389Z,28.04
2022-08-18T12:30:19.922Z,28.39
2022-08-18T12:35:34.989Z,28.60
2022-08-18T12:38:04.882Z,28.15
2022-08-18T12:40:48.397Z,28.36
2022-08-18T12:43:14.875Z,28.80
2022-08-18T12:45:42.956Z,29.05
2022-08-18T12:48:09.599Z,29.34
2022-08-18T12:50:49.725Z,29.12
2022-08-18T12:53:30.587Z,29.26
2022-08-18T12:56:17.121Z,29.34
2022-08-18T12:58:46.308Z,28.89
2022-08-18T13:01:12.926Z,28.33
2022-08-18T13:03:45.349Z,28.48
2022-08-18T13:06:19.872Z,29.18
2022-08-18T13:08:50.121Z,30.40
2022-08-18T13:11:23.683Z,30.47
2022-08-18T13:13:56.098Z,30.42
2022-08-18T13:16:38.891Z,31.79
2022-08-18T13:19:13.145Z,34.09
2022-08-18T13:21:43.061Z,34.31
2022-08-18T13:24:10.444Z,34.05
2022-08-18T13:26:43.227Z,33.25
2022-08-18T13:29:14.192Z,33.48
2022-08-18T13:31:41.022Z,32.15
2022-08-18T13:34:19.326Z,31.42
2022-08-18T13:36:48.241Z,31.35
2022-08-18T13:39:20.291Z,32.35
2022-08-18T13:41:48.929Z,33.57
2022-08-18T13:44:18.641Z,34.40
2022-08-18T13:46:47.996Z,34.48
2022-08-18T13:49:29.943Z,34.38
2022-08-18T13:51:59.227Z,35.38
2022-08-18T13:54:35.256Z,33.82
2022-08-18T13:57:03.687Z,35.59
2022-08-18T13:59:34.171Z,36.05
2022-08-18T14:02:05.672Z,33.68
2022-08-18T14:04:36.168Z,33.89
2022-08-18T14:07:07.322Z,35.92
2022-08-18T14:09:38.042Z,36.50
2022-08-18T14:12:07.352Z,36.36
2022-08-18T14:14:42.734Z,36.54
2022-08-18T14:17:09.217Z,36.87
2022-08-18T14:19:54.147Z,37.56
2022-08-18T14:22:41.599Z,37.38
2022-08-18T14:25:28.080Z,35.62
2022-08-18T14:27:56.845Z,36.03
2022-08-18T14:30:23.852Z,34.29
2022-08-18T14:32:50.466Z,34.96
2022-08-18T14:35:33.361Z,35.26
2022-08-18T14:38:02.520Z,35.26
2022-08-18T14:40:31.500Z,34.02
2022-08-18T14:42:58.650Z,33.35
2022-08-18T14:45:31.574Z,33.25
2022-08-18T14:48:06.651Z,34.19
2022-08-18T14:50:35.055Z,34.50
2022-08-18T14:53:01.745Z,35.38
2022-08-18T14:55:28.266Z,35.48
2022-08-18T14:57:59.400Z,35.58
2022-08-18T15:00:27.829Z,35.14
2022-08-18T15:02:54.580Z,36.00
2022-08-18T15:05:24.202Z,35.82
2022-08-18T15:07:51.746Z,35.60
2022-08-18T15:10:19.896Z,35.86
2022-08-18T15:12:50.317Z,34.93
2022-08-18T15:15:18.377Z,35.00
2022-08-18T15:17:45.401Z,34.05
2022-08-18T15:20:19.169Z,33.71
2022-08-18T15:23:04.844Z,33.35
2022-08-18T15:25:44.814Z,33.83
2022-08-18T15:28:23.720Z,33.34
2022-08-18T15:31:16.596Z,33.54
2022-08-18T15:33:39.276Z,33.63
2022-08-18T15:36:09.741Z,34.06
2022-08-18T15:38:37.299Z,33.88
2022-08-18T15:41:06.129Z,33.31
2022-08-18T15:43:45.818Z,32.92
2022-08-18T15:46:14.035Z,33.34
2022-08-18T15:48:43.612Z,33.40
2022-08-18T15:51:12.159Z,32.47
2022-08-18T15:53:44.445Z,31.32
2022-08-18T15:56:20.989Z,30.79
2022-08-18T15:58:48.188Z,30.34
2022-08-18T16:01:30.410Z,29.65
2022-08-18T16:03:59.668Z,29.31
2022-08-18T16:06:27.528Z,28.78
2022-08-18T16:08:54.957Z,28.33
2022-08-18T16:11:28.935Z,27.80
2022-08-18T16:13:58.618Z,27.59
2022-08-18T16:16:29.347Z,27.29
2022-08-18T16:19:04.168Z,27.26
2022-08-18T16:21:30.697Z,27.04
2022-08-18T16:23:57.115Z,27.12
2022-08-18T16:26:23.892Z,27.06
2022-08-18T16:28:52.308Z,27.00
2022-08-18T16:31:24.826Z,26.77
2022-08-18T16:33:53.434Z,26.66
2022-08-18T16:36:20.521Z,26.54
2022-08-18T16:38:47.293Z,26.44
2022-08-18T16:41:15.841Z,26.47
2022-08-18T16:43:44.612Z,26.33
2022-08-18T16:46:23.126Z,26.15
2022-08-18T16:48:49.828Z,26.13
2022-08-18T16:51:19.773Z,25.83
2022-08-18T16:53:47.424Z,25.98
2022-08-18T16:56:19.337Z,25.87
2022-08-18T16:59:05.269Z,25.56
2022-08-18T17:01:52.068Z,25.28
2022-08-18T17:04:22.449Z,25.43
2022-08-18T17:06:50.097Z,25.52
2022-08-18T17:09:18.588Z,25.39
2022-08-18T17:11:47.972Z,25.13
2022-08-18T17:14:19.826Z,25.18
2022-08-18T17:16:49.079Z,25.12
2022-08-18T17:19:15.548Z,25.21
2022-08-18T17:21:42.011Z,24.98
2022-08-18T17:24:10.565Z,25.10
2022-08-18T17:26:53.240Z,24.95
2022-08-18T17:29:43.512Z,24.97
2022-08-18T17:32:20.126Z,24.89
2022-08-18T17:34:51.860Z,24.89
2022-08-18T17:37:23.150Z,24.80
2022-08-18T17:39:57.529Z,24.74
2022-08-18T17:42:26.835Z,24.73
2022-08-18T17:44:59.059Z,24.80
2022-08-18T17:47:33.267Z,24.78
2022-08-18T17:50:28.764Z,24.69
2022-08-18T17:53:07.393Z,24.68
2022-08-18T17:55:49.728Z,24.37
2022-08-18T17:58:42.153Z,24.21
2022-08-18T18:01:10.441Z,24.15
2022-08-18T18:03:38.004Z,24.12
2022-08-18T18:06:18.475Z,24.04
2022-08-18T18:08:49.453Z,23.87
2022-08-18T18:11:15.917Z,23.73
2022-08-18T18:13:42.464Z,23.62
2022-08-18T18:16:36.156Z,23.66
2022-08-18T18:19:06.102Z,23.46
2022-08-18T18:22:00.504Z,23.43
2022-08-18T18:24:30.647Z,23.43
2022-08-18T18:26:57.105Z,23.23
2022-08-18T18:29:35.698Z,23.09
2022-08-18T18:32:24.714Z,22.85
2022-08-18T18:35:12.307Z,22.69
2022-08-18T18:37:49.051Z,22.63
2022-08-18T18:40:24.137Z,22.46
2022-08-18T18:42:51.117Z,22.20
2022-08-18T18:45:36.017Z,22.30
2022-08-18T18:48:38.686Z,22.35
2022-08-18T18:51:19.306Z,22.26
2022-08-18T18:54:12.739Z,22.35
2022-08-18T18:56:45.630Z,22.20
2022-08-18T18:59:15.046Z,21.89
2022-08-18T19:01:55.536Z,21.72
2022-08-18T19:04:39.295Z,22.05
2022-08-18T19:07:26.247Z,21.79
2022-08-18T19:10:18.568Z,21.66
2022-08-18T19:12:56.934Z,21.64
2022-08-18T19:15:25.576Z,21.69
2022-08-18T19:18:00.479Z,21.68
2022-08-18T19:20:39.357Z,21.66
2022-08-18T19:23:34.228Z,21.76
2022-08-18T19:26:18.895Z,21.71
2022-08-18T19:29:12.796Z,21.29
2022-08-18T19:31:40.634Z,21.36
2022-08-18T19:34:12.472Z,21.32
2022-08-18T19:36:48.823Z,21.10
2022-08-18T19:39:26.628Z,21.35
2022-08-18T19:42:02.342Z,21.34
2022-08-18T19:44:34.943Z,21.38
2022-08-18T19:47:27.967Z,21.36
2022-08-18T19:50:13.667Z,21.21
2022-08-18T19:53:01.736Z,21.08
2022-08-18T19:55:47.402Z,21.00
2022-08-18T19:58:37.718Z,20.89
2022-08-18T20:01:20.999Z,20.85
2022-08-18T20:04:09.496Z,20.81
2022-08-18T20:06:49.924Z,20.79
2022-08-18T20:09:28.427Z,20.79
2022-08-18T20:12:04.400Z,20.77
2022-08-18T20:14:39.072Z,20.79
2022-08-18T20:17:23.593Z,20.83
2022-08-18T20:19:59.122Z,20.78
2022-08-18T20:22:32.272Z,20.64
2022-08-18T20:25:19.824Z,20.62
2022-08-18T20:28:12.881Z,20.61
2022-08-18T20:30:58.365Z,20.58
2022-08-18T20:33:25.812Z,20.59
2022-08-18T20:35:58.295Z,20.60
2022-08-18T20:38:31.593Z,20.52
2022-08-18T20:40:59.890Z,20.45
2022-08-18T20:43:32.820Z,20.31
2022-08-18T20:46:20.119Z,20.25
2022-08-18T20:49:06.893Z,20.13
2022-08-18T20:51:43.780Z,20.12
2022-08-18T20:54:39.754Z,20.00
2022-08-18T20:57:24.638Z,19.92
2022-08-18T20:59:58.514Z,19.89
2022-08-18T21:02:35.001Z,19.84
2022-08-18T21:05:02.122Z,19.80
2022-08-18T21:07:38.025Z,19.65
2022-08-18T21:10:18.449Z,19.52
2022-08-18T21:12:52.168Z,19.62
2022-08-18T21:15:25.612Z,19.62
2022-08-18T21:18:04.608Z,19.62
2022-08-18T21:20:33.033Z,19.65
2022-08-18T21:23:11.641Z,19.45
2022-08-18T21:25:54.487Z,19.20
2022-08-18T21:28:22.668Z,19.19
2022-08-18T21:31:30.813Z,19.31
2022-08-18T21:33:49.774Z,19.33
2022-08-18T21:36:18.727Z,19.21
2022-08-18T21:39:06.240Z,19.09
2022-08-18T21:41:39.314Z,19.19
2022-08-18T21:44:16.686Z,19.29
2022-08-18T21:46:45.564Z,19.33
2022-08-18T21:49:12.301Z,19.37
2022-08-18T21:51:46.321Z,19.37
2022-08-18T21:54:21.117Z,19.38
2022-08-18T21:56:50.946Z,19.32
2022-08-18T21:59:20.580Z,19.24
2022-08-18T22:01:56.605Z,19.20
2022-08-18T22:04:33.574Z,19.21
2022-08-18T22:07:03.926Z,19.21
2022-08-18T22:09:51.894Z,19.27
2022-08-18T22:12:42.933Z,19.24
2022-08-18T22:15:36.859Z,19.24
2022-08-18T22:18:03.285Z,19.15
2022-08-18T22:20:44.509Z,19.10
2022-08-18T22:23:32.296Z,18.96
2022-08-18T22:26:26.307Z,18.95
2022-08-18T22:28:58.782Z,18.97
2022-08-18T22:31:29.340Z,18.98
2022-08-18T22:33:56.649Z,19.16
2022-08-18T22:36:28.586Z,19.24
2022-08-18T22:38:55.598Z,19.31
2022-08-18T22:41:22.332Z,19.37
2022-08-18T22:43:54.632Z,19.37
2022-08-18T22:46:24.225Z,19.31
2022-08-18T22:48:52.276Z,19.29
2022-08-18T22:51:23.664Z,19.21
2022-08-18T22:53:50.691Z,19.05
2022-08-18T22:56:33.936Z,18.99
2022-08-18T22:59:09.693Z,18.87
2022-08-18T23:01:41.598Z,18.88
2022-08-18T23:04:08.124Z,18.94
2022-08-18T23:06:34.937Z,18.89
2022-08-18T23:09:02.331Z,18.94
2022-08-18T23:11:29.167Z,19.07
2022-08-18T23:13:56.268Z,18.99
2022-08-18T23:16:31.209Z,18.89
2022-08-18T23:19:02.041Z,18.80
2022-08-18T23:21:34.452Z,18.81
2022-08-18T23:24:03.817Z,18.83
2022-08-18T23:26:30.555Z,18.82
2022-08-18T23:28:57.636Z,18.79
2022-08-18T23:31:24.111Z,18.80
2022-08-18T23:33:50.608Z,18.88
2022-08-18T23:36:17.819Z,18.98
2022-08-18T23:38:44.677Z,18.96
2022-08-18T23:41:13.189Z,18.98
2022-08-18T23:43:39.820Z,18.96
2022-08-18T23:46:16.933Z,18.94
2022-08-18T23:48:49.592Z,18.83
2022-08-18T23:51:36.993Z,18.81
2022-08-18T23:54:07.285Z,18.78
2022-08-18T23:56:35.139Z,18.78
2022-08-18T23:59:02.377Z,18.90
